createdAt,value
2022-09-06T00:03:01.284Z,23.20
2022-09-06T00:06:12.022Z,23.10
2022-09-06T00:09:14.341Z,23.20
2022-09-06T00:12:16.480Z,23.20
2022-09-06T00:15:18.588Z,23.20
2022-09-06T00:18:20.936Z,23.10
2022-09-06T00:21:25.739Z,23.10
2022-09-06T00:24:28.091Z,23.10
2022-09-06T00:27:30.194Z,23.10
2022-09-06T00:30:33.502Z,23.10
2022-09-06T00:33:37.510Z,23.10
2022-09-06T00:36:39.690Z,23.10
2022-09-06T00:39:41.876Z,23.20
2022-09-06T00:42:43.997Z,23.10
2022-09-06T00:45:46.148Z,23.10
2022-09-06T00:48:52.671Z,23.10
2022-09-06T00:52:07.806Z,23.10
2022-09-06T00:55:10.255Z,23.20
2022-09-06T00:58:13.157Z,23.10
2022-09-06T01:01:15.400Z,23.10
2022-09-06T01:04:17.590Z,23.10
2022-09-06T01:07:28.398Z,23.10
2022-09-06T01:11:01.400Z,23.10
2022-09-06T01:14:24.889Z,23.00
2022-09-06T01:17:27.232Z,23.00
2022-09-06T01:20:59.908Z,23.00
2022-09-06T01:24:22.264Z,23.00
2022-09-06T01:27:39.162Z,23.00
2022-09-06T01:30:57.853Z,23.00
2022-09-06T01:34:03.677Z,23.00
2022-09-06T01:37:13.557Z,23.00
2022-09-06T01:40:15.660Z,23.00
2022-09-06T01:43:25.947Z,23.00
2022-09-06T01:46:32.489Z,23.00
2022-09-06T01:50:02.047Z,23.00
2022-09-06T01:53:16.408Z,23.00
2022-09-06T01:56:56.958Z,23.00
2022-09-06T02:00:10.849Z,23.00
2022-09-06T02:03:47.416Z,23.00
2022-09-06T02:06:57.951Z,22.90
2022-09-06T02:10:30.188Z,22.90
2022-09-06T02:13:44.927Z,22.80
2022-09-06T02:16:50.655Z,22.70
2022-09-06T02:19:58.954Z,22.70
2022-09-06T02:23:06.224Z,22.60
2022-09-06T02:26:22.248Z,22.60
2022-09-06T02:29:24.530Z,22.50
2022-09-06T02:32:28.487Z,22.50
2022-09-06T02:35:31.093Z,22.50
2022-09-06T02:38:35.554Z,22.40
2022-09-06T02:41:39.999Z,22.40
2022-09-06T02:44:42.137Z,22.40
2022-09-06T02:47:44.199Z,22.40
2022-09-06T02:50:46.283Z,22.20
2022-09-06T02:53:48.355Z,22.20
2022-09-06T02:56:52.363Z,22.10
2022-09-06T02:59:54.725Z,22.10
2022-09-06T03:02:57.234Z,22.10
2022-09-06T03:05:59.349Z,22.00
2022-09-06T03:09:01.420Z,22.00
2022-09-06T03:12:04.078Z,22.10
2022-09-06T03:15:06.977Z,22.00
2022-09-06T03:18:09.118Z,22.00
2022-09-06T03:21:11.378Z,21.90
2022-09-06T03:24:13.420Z,21.90
2022-09-06T03:27:15.707Z,21.90
2022-09-06T03:30:18.460Z,22.00
2022-09-06T03:33:21.086Z,22.00
2022-09-06T03:36:23.172Z,22.00
2022-09-06T03:39:25.262Z,22.00
2022-09-06T03:42:27.663Z,22.10
2022-09-06T03:45:31.494Z,22.10
2022-09-06T03:48:33.579Z,22.20
2022-09-06T03:51:35.774Z,22.20
2022-09-06T03:54:37.823Z,22.20
2022-09-06T03:57:39.873Z,22.30
2022-09-06T04:00:41.940Z,22.20
2022-09-06T04:03:44.051Z,22.30
2022-09-06T04:06:46.114Z,22.30
2022-09-06T04:09:48.308Z,22.20
2022-09-06T04:12:50.331Z,22.30
2022-09-06T04:16:00.129Z,22.30
2022-09-06T04:19:04.659Z,22.30
2022-09-06T04:22:06.840Z,22.30
2022-09-06T04:25:09.853Z,22.10
2022-09-06T04:28:12.268Z,22.20
2022-09-06T04:31:14.378Z,22.20
2022-09-06T04:34:16.655Z,22.20
2022-09-06T04:37:20.206Z,22.30
2022-09-06T04:40:22.308Z,22.30
2022-09-06T04:43:24.707Z,22.30
2022-09-06T04:46:30.732Z,22.30
2022-09-06T04:49:32.785Z,22.30
2022-09-06T04:52:34.899Z,22.30
2022-09-06T04:55:38.495Z,22.30
2022-09-06T04:58:40.579Z,22.30
2022-09-06T05:01:42.767Z,22.30
2022-09-06T05:04:44.873Z,22.30
2022-09-06T05:07:46.898Z,22.30
2022-09-06T05:10:52.076Z,22.20
2022-09-06T05:13:55.621Z,22.30
2022-09-06T05:16:57.832Z,22.40
2022-09-06T05:20:00.017Z,22.40
2022-09-06T05:23:02.143Z,22.40
2022-09-06T05:26:05.194Z,22.40
2022-09-06T05:29:07.642Z,22.40
2022-09-06T05:32:09.778Z,22.40
2022-09-06T05:35:12.013Z,22.40
2022-09-06T05:38:14.194Z,22.30
2022-09-06T05:41:16.316Z,22.30
2022-09-06T05:44:18.375Z,22.30
2022-09-06T05:47:20.442Z,22.30
2022-09-06T05:50:22.563Z,22.20
2022-09-06T05:53:24.963Z,22.10
2022-09-06T05:56:27.340Z,22.00
2022-09-06T05:59:29.460Z,22.00
2022-09-06T06:02:31.594Z,22.00
2022-09-06T06:05:33.638Z,22.00
2022-09-06T06:08:36.462Z,21.90
2022-09-06T06:11:38.677Z,21.80
2022-09-06T06:14:41.209Z,21.70
2022-09-06T06:17:43.310Z,21.70
2022-09-06T06:20:45.505Z,21.60
2022-09-06T06:23:54.240Z,21.60
2022-09-06T06:26:56.445Z,21.50
2022-09-06T06:29:58.720Z,21.40
2022-09-06T06:33:02.306Z,21.50
2022-09-06T06:36:13.492Z,21.50
2022-09-06T06:39:15.862Z,21.60
2022-09-06T06:42:17.931Z,21.60
2022-09-06T06:45:22.267Z,21.80
2022-09-06T06:48:24.457Z,22.20
2022-09-06T06:51:31.208Z,22.80
2022-09-06T06:54:33.319Z,23.50
2022-09-06T06:57:35.491Z,24.10
2022-09-06T07:00:37.584Z,24.80
2022-09-06T07:03:40.162Z,25.10
2022-09-06T07:13:34.842Z,26.60
2022-09-06T07:16:37.016Z,27.20
2022-09-06T07:26:29.265Z,28.10
2022-09-06T07:29:33.632Z,28.60
2022-09-06T07:32:35.722Z,28.60
2022-09-06T07:35:37.936Z,29.20
2022-09-06T07:38:40.608Z,29.60
2022-09-06T07:41:43.479Z,30.10
2022-09-06T07:44:45.558Z,30.70
2022-09-06T07:51:12.853Z,31.50
2022-09-06T07:54:31.433Z,32.10
2022-09-06T07:57:33.706Z,32.00
2022-09-06T08:00:36.143Z,33.20
2022-09-06T08:03:39.071Z,33.40
2022-09-06T08:10:06.971Z,33.50
2022-09-06T08:13:09.052Z,33.40
2022-09-06T08:16:12.656Z,34.50
2022-09-06T08:19:15.687Z,34.90
2022-09-06T08:22:17.947Z,35.60
2022-09-06T08:25:20.294Z,36.30
2022-09-06T08:28:25.621Z,35.60
2022-09-06T08:31:32.296Z,35.70
2022-09-06T08:34:34.412Z,35.90
2022-09-06T08:37:36.479Z,36.40
2022-09-06T08:40:39.170Z,36.60
2022-09-06T08:47:34.224Z,37.10
2022-09-06T08:50:38.868Z,36.90
2022-09-06T08:53:46.651Z,37.80
2022-09-06T08:57:11.726Z,37.80
2022-09-06T09:00:15.191Z,38.70
2022-09-06T09:03:24.318Z,38.80
2022-09-06T09:06:27.901Z,39.00
2022-09-06T09:09:31.445Z,38.80
2022-09-06T09:12:38.477Z,39.00
2022-09-06T09:15:40.694Z,38.80
2022-09-06T09:18:53.655Z,38.00
2022-09-06T09:21:56.044Z,38.00
2022-09-06T09:25:00.356Z,38.50
2022-09-06T09:28:02.967Z,39.70
2022-09-06T09:31:07.171Z,39.90
2022-09-06T09:34:15.201Z,39.70
2022-09-06T09:40:57.443Z,40.00
2022-09-06T09:44:04.598Z,39.80
2022-09-06T09:47:33.001Z,40.50
2022-09-06T09:50:35.759Z,40.00
2022-09-06T09:53:49.432Z,39.70
2022-09-06T09:56:53.157Z,38.70
2022-09-06T09:59:58.465Z,39.80
2022-09-06T10:03:01.238Z,39.50
2022-09-06T10:06:04.238Z,39.70
2022-09-06T10:09:19.248Z,39.00
2022-09-06T10:12:38.913Z,37.40
2022-09-06T10:15:43.877Z,36.30
2022-09-06T10:18:46.511Z,37.00
2022-09-06T10:21:51.365Z,38.10
2022-09-06T10:25:06.067Z,39.60
2022-09-06T10:28:36.577Z,39.00
2022-09-06T10:32:04.909Z,39.20
2022-09-06T10:35:24.103Z,39.80
2022-09-06T10:38:38.693Z,38.90
2022-09-06T10:42:26.812Z,38.80
2022-09-06T10:46:01.928Z,37.30
2022-09-06T10:49:04.078Z,36.50
2022-09-06T10:52:10.069Z,37.10
2022-09-06T10:55:18.211Z,37.60
2022-09-06T11:01:58.609Z,39.60
2022-09-06T11:08:46.237Z,40.70
2022-09-06T11:12:07.385Z,39.70
2022-09-06T11:15:13.380Z,39.20
2022-09-06T11:18:26.707Z,39.40
2022-09-06T11:21:49.996Z,39.90
2022-09-06T11:25:10.706Z,39.70
2022-09-06T11:28:18.669Z,39.80
2022-09-06T11:35:36.397Z,37.70
2022-09-06T11:38:38.985Z,37.10
2022-09-06T11:41:42.855Z,35.60
2022-09-06T11:45:13.607Z,35.10
2022-09-06T11:48:56.944Z,33.50
2022-09-06T11:51:59.173Z,33.40
2022-09-06T11:55:04.431Z,32.80
2022-09-06T11:58:22.594Z,32.40
2022-09-06T12:01:24.788Z,32.10
2022-09-06T12:05:00.485Z,31.80
2022-09-06T12:08:24.760Z,31.50
2022-09-06T12:11:44.947Z,31.50
2022-09-06T12:14:47.118Z,31.10
2022-09-06T12:17:58.418Z,31.10
2022-09-06T12:21:04.355Z,31.00
2022-09-06T12:24:09.046Z,30.40
2022-09-06T12:27:26.997Z,30.10
2022-09-06T12:30:44.296Z,29.90
2022-09-06T12:33:48.226Z,29.80
2022-09-06T12:36:56.452Z,29.40
2022-09-06T12:40:00.002Z,29.30
2022-09-06T12:43:04.762Z,29.20
2022-09-06T12:46:08.295Z,29.30
2022-09-06T12:49:12.416Z,29.00
2022-09-06T12:52:19.052Z,29.10
2022-09-06T12:55:24.763Z,29.20
2022-09-06T12:58:30.809Z,29.20
2022-09-06T13:01:35.965Z,29.30
2022-09-06T13:04:41.940Z,29.10
2022-09-06T13:07:54.391Z,29.20
2022-09-06T13:10:57.485Z,29.10
2022-09-06T13:14:00.839Z,29.20
2022-09-06T13:17:03.556Z,29.30
2022-09-06T13:20:26.757Z,29.30
2022-09-06T13:23:29.497Z,29.50
2022-09-06T13:26:38.272Z,29.50
2022-09-06T13:29:54.083Z,29.50
2022-09-06T13:32:56.246Z,29.40
2022-09-06T13:36:12.287Z,29.30
2022-09-06T13:39:32.789Z,29.40
2022-09-06T13:42:37.358Z,29.30
2022-09-06T13:45:40.314Z,29.20
2022-09-06T13:48:44.585Z,29.30
2022-09-06T13:51:46.929Z,29.20
2022-09-06T13:54:49.222Z,29.20
2022-09-06T13:57:51.397Z,29.30
2022-09-06T14:00:56.928Z,29.30
2022-09-06T14:03:59.495Z,29.20
2022-09-06T14:07:01.684Z,29.10
2022-09-06T14:10:04.320Z,29.00
2022-09-06T14:13:06.436Z,29.10
2022-09-06T14:16:08.868Z,29.00
2022-09-06T14:19:11.130Z,29.20
2022-09-06T14:22:13.722Z,29.10
2022-09-06T14:25:15.955Z,29.10
2022-09-06T14:28:18.173Z,29.20
2022-09-06T14:31:23.659Z,29.20
2022-09-06T14:34:27.939Z,29.30
2022-09-06T14:37:30.106Z,29.20
2022-09-06T14:40:35.803Z,29.10
2022-09-06T14:43:37.939Z,28.90
2022-09-06T14:46:40.059Z,28.90
2022-09-06T14:49:42.222Z,28.90
2022-09-06T14:52:44.408Z,29.00
2022-09-06T14:55:46.469Z,28.90
2022-09-06T14:58:48.819Z,29.00
2022-09-06T15:01:51.056Z,29.00
2022-09-06T15:04:53.204Z,29.10
2022-09-06T15:07:55.329Z,29.10
2022-09-06T15:10:58.627Z,29.20
2022-09-06T15:14:05.213Z,29.10
2022-09-06T15:17:09.132Z,28.90
2022-09-06T15:20:11.630Z,28.90
2022-09-06T15:23:28.846Z,28.80
2022-09-06T15:26:30.934Z,28.60
2022-09-06T15:29:33.552Z,28.60
2022-09-06T15:32:35.990Z,28.40
2022-09-06T15:35:39.469Z,28.40
2022-09-06T15:38:44.161Z,28.40
2022-09-06T15:41:46.389Z,28.60
2022-09-06T15:44:48.487Z,28.60
2022-09-06T15:47:51.031Z,28.70
2022-09-06T15:50:53.141Z,28.60
2022-09-06T15:53:55.655Z,28.50
2022-09-06T15:56:58.310Z,28.40
2022-09-06T16:00:00.613Z,28.40
2022-09-06T16:03:02.690Z,28.40
2022-09-06T16:09:30.252Z,28.00
2022-09-06T16:12:32.278Z,27.70
2022-09-06T16:15:35.064Z,27.80
2022-09-06T16:18:39.623Z,27.70
2022-09-06T16:21:43.760Z,27.80
2022-09-06T16:24:45.740Z,27.80
2022-09-06T16:27:47.978Z,27.60
2022-09-06T16:30:50.116Z,27.50
2022-09-06T16:33:53.835Z,27.50
2022-09-06T16:36:57.097Z,27.30
2022-09-06T16:39:59.285Z,27.30
2022-09-06T16:43:01.643Z,27.30
2022-09-06T16:46:05.043Z,27.10
2022-09-06T16:49:07.438Z,27.10
2022-09-06T16:52:09.575Z,26.90
2022-09-06T16:55:11.644Z,26.90
2022-09-06T16:58:14.709Z,26.90
2022-09-06T17:01:16.820Z,26.60
2022-09-06T17:04:18.913Z,26.70
2022-09-06T17:07:21.137Z,26.60
2022-09-06T17:10:24.033Z,26.60
2022-09-06T17:13:26.110Z,26.60
2022-09-06T17:16:46.554Z,26.60
2022-09-06T17:19:50.647Z,26.60
2022-09-06T17:22:52.776Z,26.60
2022-09-06T17:25:54.879Z,26.50
2022-09-06T17:28:57.181Z,26.50
2022-09-06T17:32:00.169Z,26.50
2022-09-06T17:35:03.039Z,26.40
2022-09-06T17:38:07.042Z,26.40
2022-09-06T17:41:16.805Z,26.30
2022-09-06T17:44:21.167Z,26.30
2022-09-06T17:47:23.253Z,26.30
2022-09-06T17:50:25.290Z,26.30
2022-09-06T17:53:27.415Z,26.10
2022-09-06T17:56:30.634Z,26.10
2022-09-06T17:59:35.375Z,26.10
2022-09-06T18:02:38.811Z,26.10
2022-09-06T18:05:41.228Z,26.00
2022-09-06T18:08:44.823Z,25.90
2022-09-06T18:11:47.317Z,25.90
2022-09-06T18:14:49.336Z,25.90
2022-09-06T18:17:52.607Z,25.80
2022-09-06T18:20:54.891Z,25.70
2022-09-06T18:23:58.014Z,25.70
2022-09-06T18:27:02.872Z,25.60
2022-09-06T18:30:05.431Z,25.60
2022-09-06T18:33:08.903Z,25.50
2022-09-06T18:36:17.767Z,25.50
2022-09-06T18:39:22.867Z,25.40
2022-09-06T18:42:25.203Z,25.30
2022-09-06T18:45:27.301Z,25.20
2022-09-06T18:48:31.495Z,25.10
2022-09-06T18:51:33.885Z,25.10
2022-09-06T18:54:36.050Z,24.90
2022-09-06T18:57:38.099Z,24.80
2022-09-06T19:00:40.333Z,24.70
2022-09-06T19:03:42.916Z,24.50
2022-09-06T19:06:45.616Z,24.30
2022-09-06T19:09:47.670Z,24.10
2022-09-06T19:12:53.127Z,24.10
2022-09-06T19:15:56.665Z,23.70
2022-09-06T19:19:06.977Z,23.70
2022-09-06T19:22:09.115Z,23.80
2022-09-06T19:25:11.231Z,23.70
2022-09-06T19:28:13.399Z,23.70
2022-09-06T19:31:18.713Z,23.70
2022-09-06T19:34:21.263Z,23.70
2022-09-06T19:37:24.659Z,23.70
2022-09-06T19:40:26.658Z,23.70
2022-09-06T19:43:28.812Z,23.60
2022-09-06T19:46:30.900Z,23.50
2022-09-06T19:49:33.194Z,23.40
2022-09-06T19:52:35.264Z,23.40
2022-09-06T19:55:37.372Z,23.40
2022-09-06T19:58:40.741Z,23.40
2022-09-06T20:01:44.667Z,23.40
2022-09-06T20:04:46.942Z,23.50
2022-09-06T20:07:49.407Z,23.40
2022-09-06T20:10:53.287Z,23.40
2022-09-06T20:13:56.027Z,23.40
2022-09-06T20:17:16.437Z,23.40
2022-09-06T20:20:21.452Z,23.40
2022-09-06T20:23:23.575Z,23.30
2022-09-06T20:26:27.647Z,23.20
2022-09-06T20:29:29.919Z,23.20
2022-09-06T20:32:34.393Z,23.10
2022-09-06T20:35:38.767Z,23.00
2022-09-06T20:38:43.646Z,23.00
2022-09-06T20:41:45.788Z,22.80
2022-09-06T20:44:47.885Z,22.90
2022-09-06T20:47:49.929Z,22.90
2022-09-06T20:50:59.283Z,22.90
2022-09-06T20:54:04.990Z,22.90
2022-09-06T20:57:07.241Z,22.90
2022-09-06T21:00:13.778Z,22.90
2022-09-06T21:03:16.473Z,22.90
2022-09-06T21:06:19.106Z,22.80
2022-09-06T21:09:21.373Z,22.80
2022-09-06T21:12:23.524Z,22.70
2022-09-06T21:15:25.553Z,22.60
2022-09-06T21:18:31.394Z,22.50
2022-09-06T21:21:34.920Z,22.40
2022-09-06T21:24:37.233Z,22.50
2022-09-06T21:27:39.517Z,22.40
2022-09-06T21:30:42.610Z,22.40
2022-09-06T21:33:54.547Z,22.50
2022-09-06T21:36:58.300Z,22.50
2022-09-06T21:40:02.694Z,22.50
2022-09-06T21:43:05.545Z,22.40
2022-09-06T21:46:09.663Z,22.30
2022-09-06T21:49:14.003Z,22.30
2022-09-06T21:52:15.921Z,22.30
2022-09-06T21:55:18.041Z,22.30
2022-09-06T21:58:20.515Z,22.30
2022-09-06T22:01:26.500Z,22.30
2022-09-06T22:04:28.450Z,22.30
2022-09-06T22:07:30.956Z,22.30
2022-09-06T22:10:32.980Z,22.30
2022-09-06T22:13:36.790Z,22.40
2022-09-06T22:16:40.387Z,22.40
2022-09-06T22:19:43.207Z,22.50
2022-09-06T22:22:46.327Z,22.50
2022-09-06T22:25:48.365Z,22.40
2022-09-06T22:28:55.945Z,22.40
2022-09-06T22:31:58.086Z,22.40
2022-09-06T22:35:01.036Z,22.40
2022-09-06T22:38:03.236Z,22.40
2022-09-06T22:41:06.523Z,22.30
2022-09-06T22:44:08.736Z,22.30
2022-09-06T22:47:10.783Z,22.40
2022-09-06T22:50:13.098Z,22.30
2022-09-06T22:53:15.459Z,22.30
2022-09-06T22:56:17.726Z,22.30
2022-09-06T22:59:19.889Z,22.30
2022-09-06T23:02:21.988Z,22.30
2022-09-06T23:05:24.098Z,22.30
2022-09-06T23:08:26.199Z,22.30
2022-09-06T23:11:31.480Z,22.30
2022-09-06T23:14:33.822Z,22.30
2022-09-06T23:17:35.983Z,22.30
2022-09-06T23:20:38.426Z,22.30
2022-09-06T23:23:41.739Z,22.30
2022-09-06T23:26:43.772Z,22.20
2022-09-06T23:29:46.215Z,22.20
2022-09-06T23:32:48.879Z,22.20
2022-09-06T23:35:54.738Z,22.10
2022-09-06T23:38:58.342Z,22.10
2022-09-06T23:42:02.163Z,22.10
2022-09-06T23:45:04.830Z,22.10
2022-09-06T23:48:07.046Z,22.10
2022-09-06T23:51:11.014Z,22.20
2022-09-06T23:54:13.078Z,22.20
2022-09-06T23:57:16.118Z,22.20
